Login to view products.  
Friday, October 20, 2017 (19:28 UTC)
Fujairah International Airport
ICAO Code: OMFJ
IATA Code: FJR
  • METAR OMFJ 201900Z 25002KT 4500 DU NSC 29/10 Q1010 A2984=
  • TAF OMFJ 201700Z 2018/2124 VRB03KT 7000 NSC BECMG 2020/2022 29006KT BECMG 2104/2106 09008KT BECMG 2114/2116 17004KT=